createdAt,value
2018-05-26T00:00:13.042Z,13.02
2018-05-26T00:02:42.097Z,12.95
2018-05-26T00:05:11.155Z,13.00
2018-05-26T00:07:40.206Z,12.88
2018-05-26T00:10:09.272Z,12.79
2018-05-26T00:12:38.313Z,12.94
2018-05-26T00:15:07.522Z,12.84
2018-05-26T00:17:36.922Z,12.75
2018-05-26T00:25:21.405Z,13.00
2018-05-26T00:30:27.298Z,12.92
2018-05-26T00:32:56.350Z,13.03
2018-05-26T00:35:25.423Z,13.11
2018-05-26T00:37:54.489Z,12.97
2018-05-26T00:40:23.604Z,12.84
2018-05-26T00:42:52.644Z,12.79
2018-05-26T00:45:21.736Z,12.94
2018-05-26T00:50:28.537Z,12.74
2018-05-26T00:52:57.655Z,12.57
2018-05-26T00:55:27.626Z,12.48
2018-05-26T00:57:56.788Z,12.45
2018-05-26T01:00:27.987Z,12.39
2018-05-26T01:02:57.046Z,12.52
2018-05-26T01:05:26.147Z,12.48
2018-05-26T01:07:55.305Z,12.38
2018-05-26T01:10:25.374Z,12.38
2018-05-26T01:12:54.453Z,12.38
2018-05-26T01:17:59.361Z,12.51
2018-05-26T01:20:28.428Z,12.57
2018-05-26T01:22:57.487Z,12.49
2018-05-26T01:25:26.735Z,12.43
2018-05-26T01:27:55.922Z,12.40
2018-05-26T01:30:25.871Z,12.30
2018-05-26T01:32:54.925Z,12.35
2018-05-26T01:35:23.994Z,12.43
2018-05-26T01:37:53.285Z,12.47
2018-05-26T01:40:27.461Z,12.42
2018-05-26T01:42:56.532Z,12.34
2018-05-26T01:45:28.606Z,12.22
2018-05-26T01:47:57.669Z,12.23
2018-05-26T01:50:27.844Z,12.16
2018-05-26T01:52:56.889Z,12.27
2018-05-26T01:55:26.049Z,12.12
2018-05-26T01:57:55.105Z,12.01
2018-05-26T02:00:24.223Z,12.15
2018-05-26T02:02:53.344Z,12.06
2018-05-26T02:07:58.173Z,12.14
2018-05-26T02:14:08.691Z,11.80
2018-05-26T02:16:45.505Z,11.85
2018-05-26T02:19:16.841Z,11.66
2018-05-26T02:21:45.870Z,11.55
2018-05-26T02:24:15.818Z,11.50
2018-05-26T02:29:21.375Z,11.85
2018-05-26T02:31:50.442Z,11.92
2018-05-26T02:36:55.178Z,11.84
2018-05-26T02:42:00.170Z,11.60
2018-05-26T02:44:36.991Z,11.49
2018-05-26T02:47:08.110Z,11.26
2018-05-26T02:49:37.222Z,11.11
2018-05-26T02:54:52.861Z,11.18
2018-05-26T02:57:35.242Z,11.19
2018-05-26T03:00:04.482Z,11.16
2018-05-26T03:07:52.721Z,11.24
2018-05-26T03:10:27.199Z,11.04
2018-05-26T03:13:01.778Z,10.94
2018-05-26T03:15:34.370Z,11.06
2018-05-26T03:18:10.826Z,10.93
2018-05-26T03:20:47.094Z,10.89
2018-05-26T03:23:24.965Z,10.92
2018-05-26T03:25:54.035Z,10.91
2018-05-26T03:28:26.577Z,10.99
2018-05-26T03:30:56.579Z,11.11
2018-05-26T03:33:30.358Z,11.13
2018-05-26T03:36:00.326Z,11.19
2018-05-26T03:38:29.470Z,11.29
2018-05-26T03:40:58.753Z,11.24
2018-05-26T03:43:27.805Z,11.37
2018-05-26T03:45:56.895Z,11.25
2018-05-26T03:48:29.164Z,11.20
2018-05-26T03:50:58.429Z,11.18
2018-05-26T03:53:32.608Z,11.20
2018-05-26T03:56:19.469Z,11.16
2018-05-26T03:59:07.105Z,11.11
2018-05-26T04:01:36.198Z,11.22
2018-05-26T04:04:05.323Z,11.15
2018-05-26T04:06:42.465Z,11.13
2018-05-26T04:09:20.181Z,11.16
2018-05-26T04:11:49.388Z,11.27
2018-05-26T04:14:19.299Z,11.37
2018-05-26T04:16:48.350Z,11.40
2018-05-26T04:19:19.391Z,11.42
2018-05-26T04:21:49.162Z,11.44
2018-05-26T04:24:20.498Z,11.46
2018-05-26T04:26:49.549Z,11.53
2018-05-26T04:31:54.826Z,11.95
2018-05-26T04:34:25.838Z,12.12
2018-05-26T04:36:55.220Z,12.16
2018-05-26T04:39:27.252Z,12.19
2018-05-26T04:41:56.325Z,12.28
2018-05-26T04:44:29.805Z,12.38
2018-05-26T04:46:58.875Z,12.47
2018-05-26T04:49:32.581Z,12.72
2018-05-26T04:52:01.653Z,12.86
2018-05-26T04:54:31.556Z,12.92
2018-05-26T04:57:00.622Z,12.96
2018-05-26T04:59:31.697Z,13.03
2018-05-26T05:02:01.198Z,13.08
2018-05-26T05:04:34.572Z,13.15
2018-05-26T05:07:03.633Z,13.25
2018-05-26T05:12:09.888Z,13.52
2018-05-26T05:14:38.947Z,13.72
2018-05-26T05:17:08.068Z,13.74
2018-05-26T05:19:37.117Z,13.83
2018-05-26T05:24:41.979Z,14.11
2018-05-26T05:27:11.292Z,14.37
2018-05-26T05:29:40.475Z,14.56
2018-05-26T05:32:09.848Z,14.57
2018-05-26T05:34:39.979Z,14.62
2018-05-26T05:39:45.942Z,14.97
2018-05-26T05:42:19.493Z,15.00
2018-05-26T05:44:48.905Z,15.08
2018-05-26T05:47:22.922Z,15.40
2018-05-26T05:49:52.998Z,15.38
2018-05-26T05:52:22.042Z,15.45
2018-05-26T05:54:52.124Z,15.58
2018-05-26T05:57:22.134Z,15.69
2018-05-26T06:02:26.911Z,16.09
2018-05-26T06:04:56.443Z,16.13
2018-05-26T06:07:25.497Z,16.22
2018-05-26T06:09:54.553Z,16.35
2018-05-26T06:15:00.626Z,16.86
2018-05-26T06:17:29.614Z,16.85
2018-05-26T06:19:59.233Z,16.92
2018-05-26T06:22:28.281Z,17.00
2018-05-26T06:24:57.757Z,17.15
2018-05-26T06:27:26.825Z,17.31
2018-05-26T06:29:56.224Z,17.43
2018-05-26T06:32:25.291Z,17.55
2018-05-26T06:34:54.746Z,17.66
2018-05-26T06:37:23.802Z,17.87
2018-05-26T06:39:52.858Z,17.91
2018-05-26T06:42:22.263Z,18.03
2018-05-26T06:47:27.174Z,18.43
2018-05-26T06:49:56.206Z,18.42
2018-05-26T06:52:25.251Z,18.53
2018-05-26T06:54:54.307Z,18.69
2018-05-26T06:57:23.626Z,18.97
2018-05-26T07:05:04.338Z,19.32
2018-05-26T07:07:33.677Z,19.40
2018-05-26T07:10:02.744Z,19.27
2018-05-26T07:12:32.462Z,19.21
2018-05-26T07:15:01.550Z,19.21
2018-05-26T07:20:06.526Z,19.21
2018-05-26T07:22:36.466Z,19.14
2018-05-26T07:25:05.579Z,19.38
2018-05-26T07:27:35.129Z,19.40
2018-05-26T07:30:04.173Z,19.75
2018-05-26T07:32:33.853Z,19.80
2018-05-26T07:35:02.909Z,19.97
2018-05-26T07:37:32.062Z,20.15
2018-05-26T07:40:01.126Z,20.37
2018-05-26T07:42:30.202Z,20.49
2018-05-26T07:44:59.278Z,20.64
2018-05-26T07:47:28.297Z,20.75
2018-05-26T07:52:33.877Z,21.13
2018-05-26T07:55:02.930Z,21.27
2018-05-26T07:57:35.379Z,21.14
2018-05-26T08:00:06.099Z,21.47
2018-05-26T08:02:36.341Z,21.57
2018-05-26T08:07:41.266Z,21.59
2018-05-26T08:10:10.857Z,21.54
2018-05-26T08:12:41.267Z,21.62
2018-05-26T08:15:10.818Z,21.75
2018-05-26T08:17:40.439Z,21.93
2018-05-26T08:20:09.489Z,22.07
2018-05-26T08:22:39.616Z,22.02
2018-05-26T08:25:14.483Z,22.20
2018-05-26T08:27:43.539Z,22.33
2018-05-26T08:30:12.608Z,22.41
2018-05-26T08:32:42.182Z,22.27
2018-05-26T08:35:11.251Z,22.43
2018-05-26T08:37:40.829Z,22.46
2018-05-26T08:40:09.898Z,22.73
2018-05-26T08:42:39.293Z,22.96
2018-05-26T08:45:08.349Z,23.22
2018-05-26T08:47:37.585Z,23.45
2018-05-26T08:52:43.328Z,24.16
2018-05-26T08:55:12.341Z,24.30
2018-05-26T08:57:42.040Z,24.48
2018-05-26T09:00:11.116Z,24.65
2018-05-26T09:02:40.557Z,24.83
2018-05-26T09:05:09.600Z,25.11
2018-05-26T09:07:39.249Z,24.67
2018-05-26T09:10:08.281Z,25.15
2018-05-26T09:12:37.921Z,25.49
2018-05-26T09:15:06.969Z,26.10
2018-05-26T09:17:36.646Z,26.63
2018-05-26T09:22:41.519Z,29.10
2018-05-26T09:25:11.032Z,29.76
2018-05-26T09:27:40.044Z,29.93
2018-05-26T09:30:09.902Z,30.79
2018-05-26T09:35:15.164Z,32.97
2018-05-26T09:37:44.331Z,32.76
2018-05-26T09:42:50.054Z,33.58
2018-05-26T09:45:19.235Z,33.90
2018-05-26T09:47:49.775Z,34.14
2018-05-26T09:50:19.072Z,34.97
2018-05-26T09:52:49.409Z,35.02
2018-05-26T09:55:19.101Z,35.75
2018-05-26T09:57:49.297Z,36.44
2018-05-26T10:00:19.150Z,36.35
2018-05-26T10:02:56.425Z,36.86
2018-05-26T10:05:25.473Z,37.56
2018-05-26T10:07:56.504Z,38.60
2018-05-26T10:10:25.557Z,38.99
2018-05-26T10:12:54.767Z,38.78
2018-05-26T10:15:23.811Z,39.08
2018-05-26T10:17:53.228Z,38.46
2018-05-26T10:20:22.295Z,37.57
2018-05-26T10:22:52.165Z,38.77
2018-05-26T10:27:57.258Z,38.70
2018-05-26T10:30:26.304Z,38.01
2018-05-26T10:32:55.763Z,39.12
2018-05-26T10:35:24.793Z,39.63
2018-05-26T10:37:54.393Z,40.66
2018-05-26T10:40:23.575Z,39.07
2018-05-26T10:42:53.563Z,39.19
2018-05-26T10:45:39.467Z,38.49
2018-05-26T10:48:08.770Z,39.20
2018-05-26T10:50:37.789Z,39.21
2018-05-26T10:53:07.723Z,39.72
2018-05-26T10:55:36.765Z,39.58
2018-05-26T10:58:05.811Z,37.96
2018-05-26T11:00:34.862Z,38.48
2018-05-26T11:03:03.912Z,37.97
2018-05-26T11:05:32.953Z,37.09
2018-05-26T11:08:01.997Z,35.47
2018-05-26T11:10:32.509Z,34.68
2018-05-26T11:13:01.567Z,32.98
2018-05-26T11:15:31.336Z,33.94
2018-05-26T11:18:00.506Z,33.09
2018-05-26T11:20:29.517Z,32.81
2018-05-26T11:22:58.566Z,32.29
2018-05-26T11:25:28.136Z,33.71
2018-05-26T11:27:57.174Z,35.03
2018-05-26T11:30:26.643Z,36.68
2018-05-26T11:33:02.725Z,36.40
2018-05-26T11:35:40.884Z,38.46
2018-05-26T11:38:21.890Z,39.16
2018-05-26T11:41:01.958Z,38.54
2018-05-26T11:43:41.552Z,40.69
2018-05-26T11:46:11.386Z,39.11
2018-05-26T11:48:40.565Z,40.73
2018-05-26T11:51:09.618Z,41.17
2018-05-26T11:56:13.965Z,41.61
2018-05-26T11:58:43.960Z,42.10
2018-05-26T12:01:12.999Z,41.95
2018-05-26T12:03:42.793Z,40.83
2018-05-26T12:06:11.873Z,42.16
2018-05-26T12:08:41.693Z,42.47
2018-05-26T12:11:10.750Z,42.91
2018-05-26T12:13:39.791Z,44.29
2018-05-26T12:16:08.830Z,43.70
2018-05-26T12:18:38.351Z,40.53
2018-05-26T12:21:07.415Z,38.63
2018-05-26T12:23:36.473Z,38.27
2018-05-26T12:26:05.881Z,36.94
2018-05-26T12:28:35.211Z,38.29
2018-05-26T12:31:04.315Z,37.32
2018-05-26T12:33:34.146Z,37.23
2018-05-26T12:36:03.237Z,37.27
2018-05-26T12:38:32.890Z,38.45
2018-05-26T12:41:02.025Z,37.70
2018-05-26T12:43:31.062Z,36.49
2018-05-26T12:46:00.523Z,37.83
2018-05-26T12:48:29.581Z,37.18
2018-05-26T12:50:59.556Z,37.83
2018-05-26T12:53:28.605Z,38.97
2018-05-26T12:55:59.020Z,38.40
2018-05-26T13:01:04.320Z,37.88
2018-05-26T13:03:33.652Z,38.66
2018-05-26T13:06:03.323Z,39.57
2018-05-26T13:08:32.419Z,40.41
2018-05-26T13:11:02.029Z,41.47
2018-05-26T13:13:31.169Z,40.66
2018-05-26T13:16:00.910Z,39.73
2018-05-26T13:21:05.881Z,42.03
2018-05-26T13:23:34.973Z,40.75
2018-05-26T13:26:04.439Z,43.08
2018-05-26T13:28:33.481Z,41.65
2018-05-26T13:31:03.117Z,42.64
2018-05-26T13:36:08.279Z,44.29
2018-05-26T13:41:13.672Z,44.79
2018-05-26T13:43:42.710Z,42.97
2018-05-26T13:46:12.041Z,44.17
2018-05-26T13:48:41.093Z,44.04
2018-05-26T13:51:23.823Z,44.18
2018-05-26T13:54:04.729Z,44.76
2018-05-26T13:56:46.150Z,45.05
2018-05-26T14:02:14.919Z,45.31
2018-05-26T14:07:25.054Z,44.41
2018-05-26T14:12:33.855Z,44.55
2018-05-26T14:15:05.725Z,44.38
2018-05-26T14:17:37.771Z,44.91
2018-05-26T14:20:09.359Z,42.92
2018-05-26T14:22:42.013Z,44.14
2018-05-26T14:25:13.252Z,44.52
2018-05-26T14:27:45.284Z,46.48
2018-05-26T14:30:16.533Z,45.61
2018-05-26T14:32:48.746Z,44.65
2018-05-26T14:35:21.065Z,45.85
2018-05-26T14:37:53.179Z,47.63
2018-05-26T14:40:25.216Z,46.55
2018-05-26T14:42:57.703Z,46.70
2018-05-26T14:45:30.727Z,46.17
2018-05-26T14:50:40.399Z,45.52
2018-05-26T14:53:11.499Z,45.31
2018-05-26T14:55:44.962Z,43.69
2018-05-26T14:58:15.907Z,42.73
2018-05-26T15:00:47.749Z,43.35
2018-05-26T15:03:18.939Z,43.78
2018-05-26T15:05:47.989Z,42.96
2018-05-26T15:08:17.028Z,42.90
2018-05-26T15:10:46.081Z,43.65
2018-05-26T15:13:15.202Z,42.98
2018-05-26T15:15:44.174Z,42.77
2018-05-26T15:18:13.218Z,44.27
2018-05-26T15:20:42.337Z,41.19
2018-05-26T15:23:11.442Z,41.35
2018-05-26T15:25:40.530Z,44.30
2018-05-26T15:28:09.629Z,44.56
2018-05-26T15:30:38.770Z,43.03
2018-05-26T15:33:07.848Z,42.81
2018-05-26T15:35:36.895Z,44.68
2018-05-26T15:38:06.227Z,45.10
2018-05-26T15:40:35.371Z,43.05
2018-05-26T15:43:04.447Z,42.88
2018-05-26T15:48:09.388Z,43.05
2018-05-26T15:50:38.542Z,42.45
2018-05-26T15:53:07.634Z,44.11
2018-05-26T15:55:36.701Z,43.80
2018-05-26T15:58:05.756Z,42.80
2018-05-26T16:03:10.618Z,43.38
2018-05-26T16:05:40.199Z,43.45
2018-05-26T16:08:09.286Z,44.51
2018-05-26T16:10:38.399Z,40.90
2018-05-26T16:13:07.503Z,40.61
2018-05-26T16:15:36.579Z,40.92
2018-05-26T16:18:05.704Z,38.91
2018-05-26T16:20:34.765Z,40.32
2018-05-26T16:25:39.686Z,38.33
2018-05-26T16:28:09.751Z,35.91
2018-05-26T16:30:38.855Z,34.06
2018-05-26T16:33:07.955Z,33.27
2018-05-26T16:35:37.057Z,32.81
2018-05-26T16:38:06.098Z,32.38
2018-05-26T16:40:35.238Z,31.34
2018-05-26T16:43:04.286Z,29.98
2018-05-26T16:45:33.330Z,29.59
2018-05-26T16:48:02.483Z,29.25
2018-05-26T16:50:31.580Z,29.71
2018-05-26T16:53:00.608Z,29.32
2018-05-26T16:55:29.710Z,28.73
2018-05-26T16:57:58.728Z,28.11
2018-05-26T17:00:27.782Z,27.73
2018-05-26T17:02:56.822Z,28.16
2018-05-26T17:05:25.884Z,27.99
2018-05-26T17:07:54.967Z,27.52
2018-05-26T17:10:24.092Z,27.40
2018-05-26T17:12:53.214Z,27.30
2018-05-26T17:15:22.266Z,27.00
2018-05-26T17:17:51.370Z,26.82
2018-05-26T17:22:56.736Z,26.77
2018-05-26T17:28:01.605Z,26.79
2018-05-26T17:30:30.662Z,26.90
2018-05-26T17:32:59.716Z,26.69
2018-05-26T17:35:28.757Z,26.55
2018-05-26T17:37:57.825Z,26.28
2018-05-26T17:40:26.879Z,26.07
2018-05-26T17:42:55.924Z,25.87
2018-05-26T17:45:24.961Z,26.08
2018-05-26T17:47:54.005Z,25.70
2018-05-26T17:50:23.061Z,25.47
2018-05-26T17:52:52.098Z,25.23
2018-05-26T17:55:21.153Z,25.00
2018-05-26T17:57:50.199Z,24.82
2018-05-26T18:00:19.601Z,24.64
2018-05-26T18:02:49.534Z,24.49
2018-05-26T18:05:19.377Z,24.30
2018-05-26T18:07:48.394Z,24.14
2018-05-26T18:10:18.766Z,23.99
2018-05-26T18:12:47.811Z,23.82
2018-05-26T18:15:18.120Z,23.72
2018-05-26T18:17:47.189Z,23.56
2018-05-26T18:20:16.490Z,23.73
2018-05-26T18:22:45.517Z,23.44
2018-05-26T18:25:14.783Z,23.19
2018-05-26T18:27:43.843Z,23.31
2018-05-26T18:30:12.891Z,22.96
2018-05-26T18:32:41.992Z,22.76
2018-05-26T18:35:11.001Z,22.86
2018-05-26T18:37:40.054Z,22.57
2018-05-26T18:40:09.542Z,22.29
2018-05-26T18:47:50.396Z,21.87
2018-05-26T18:50:21.798Z,21.87
2018-05-26T18:52:50.890Z,21.78
2018-05-26T18:55:20.920Z,21.33
2018-05-26T18:57:49.998Z,21.10
2018-05-26T19:00:20.803Z,20.70
2018-05-26T19:02:49.856Z,20.46
2018-05-26T19:07:55.673Z,20.46
2018-05-26T19:10:27.875Z,20.19
2018-05-26T19:12:56.938Z,19.94
2018-05-26T19:20:56.566Z,19.95
2018-05-26T19:23:25.772Z,19.79
2018-05-26T19:25:54.831Z,19.37
2018-05-26T19:28:28.740Z,19.21
2018-05-26T19:30:57.878Z,19.19
2018-05-26T19:33:27.118Z,19.22
2018-05-26T19:35:56.244Z,19.23
2018-05-26T19:38:32.105Z,18.88
2018-05-26T19:41:18.320Z,18.63
2018-05-26T19:43:55.973Z,18.45
2018-05-26T19:46:47.023Z,18.30
2018-05-26T19:49:28.004Z,18.19
2018-05-26T19:52:19.774Z,18.36
2018-05-26T19:55:01.237Z,18.20
2018-05-26T19:57:51.903Z,18.11
2018-05-26T20:00:35.666Z,18.03
2018-05-26T20:05:50.295Z,18.16
2018-05-26T20:13:50.502Z,18.11
2018-05-26T20:16:30.589Z,17.75
2018-05-26T20:19:12.258Z,17.56
2018-05-26T20:21:53.214Z,17.44
2018-05-26T20:24:41.227Z,17.60
2018-05-26T20:30:00.289Z,17.46
2018-05-26T20:32:46.261Z,17.25
2018-05-26T20:35:23.352Z,17.12
2018-05-26T20:38:00.028Z,17.05
2018-05-26T20:40:36.592Z,17.26
2018-05-26T20:45:52.144Z,17.31
2018-05-26T20:51:26.312Z,17.20
2018-05-26T20:54:09.856Z,16.98
2018-05-26T20:56:51.791Z,16.77
2018-05-26T20:59:31.129Z,16.68
2018-05-26T21:02:13.716Z,16.60
2018-05-26T21:04:57.840Z,16.55
2018-05-26T21:07:41.435Z,16.40
2018-05-26T21:10:10.739Z,16.27
2018-05-26T21:12:39.946Z,16.19
2018-05-26T21:15:11.285Z,16.17
2018-05-26T21:17:40.319Z,16.22
2018-05-26T21:20:09.436Z,16.28
2018-05-26T21:25:19.910Z,16.42
2018-05-26T21:27:49.944Z,16.27
2018-05-26T21:30:29.397Z,16.29
2018-05-26T21:32:58.935Z,16.17
2018-05-26T21:35:37.244Z,16.06
2018-05-26T21:38:10.085Z,15.98
2018-05-26T21:40:39.434Z,15.85
2018-05-26T21:43:08.868Z,15.77
2018-05-26T21:45:39.851Z,15.78
2018-05-26T21:48:12.531Z,15.96
2018-05-26T21:50:41.763Z,15.87
2018-05-26T21:53:11.077Z,15.78
2018-05-26T21:55:40.269Z,15.80
2018-05-26T22:00:45.641Z,15.92
2018-05-26T22:05:51.043Z,15.95
2018-05-26T22:08:20.054Z,16.02
2018-05-26T22:10:49.129Z,15.95
2018-05-26T22:13:36.185Z,15.85
2018-05-26T22:16:05.262Z,15.71
2018-05-26T22:18:35.281Z,15.63
2018-05-26T22:21:04.349Z,15.65
2018-05-26T22:23:36.874Z,15.66
2018-05-26T22:26:05.920Z,15.56
2018-05-26T22:28:40.657Z,15.49
2018-05-26T22:31:09.732Z,15.38
2018-05-26T22:36:14.770Z,15.55
2018-05-26T22:38:45.950Z,15.41
2018-05-26T22:41:15.126Z,15.41
2018-05-26T22:44:02.658Z,15.49
2018-05-26T22:46:31.741Z,15.33
2018-05-26T22:49:00.830Z,15.21
2018-05-26T22:54:06.125Z,15.31
2018-05-26T22:56:35.575Z,15.45
2018-05-26T22:59:04.618Z,15.34
2018-05-26T23:01:33.687Z,15.36
2018-05-26T23:04:02.765Z,15.36
2018-05-26T23:06:32.750Z,15.33
2018-05-26T23:09:01.831Z,15.08
2018-05-26T23:11:30.923Z,14.98
2018-05-26T23:14:00.931Z,14.92
2018-05-26T23:16:33.307Z,14.79
2018-05-26T23:19:02.360Z,14.65
2018-05-26T23:21:40.246Z,14.55
2018-05-26T23:24:09.331Z,14.70
2018-05-26T23:26:42.006Z,14.67
2018-05-26T23:29:11.091Z,14.61
2018-05-26T23:34:16.550Z,14.61
2018-05-26T23:36:51.069Z,14.51
2018-05-26T23:39:21.470Z,14.44
2018-05-26T23:41:51.443Z,14.32
2018-05-26T23:44:25.981Z,14.29
2018-05-26T23:46:55.085Z,14.30
2018-05-26T23:49:26.001Z,14.35
2018-05-26T23:54:36.286Z,14.56
2018-05-26T23:57:05.337Z,14.63
2018-05-26T23:59:35.321Z,14.51
